createdAt,value
2018-02-19T00:01:00.248Z,72.26
2018-02-19T00:03:29.355Z,72.16
2018-02-19T00:05:58.443Z,71.90
2018-02-19T00:08:27.531Z,72.35
2018-02-19T00:10:56.645Z,72.73
2018-02-19T00:13:25.726Z,72.85
2018-02-19T00:15:54.843Z,72.59
2018-02-19T00:18:23.932Z,72.27
2018-02-19T00:20:53.708Z,72.42
2018-02-19T00:23:23.587Z,72.60
2018-02-19T00:25:52.699Z,73.10
2018-02-19T00:28:22.547Z,73.28
2018-02-19T00:30:51.666Z,73.26
2018-02-19T00:33:20.759Z,73.61
2018-02-19T00:35:49.880Z,73.14
2018-02-19T00:38:19.753Z,72.84
2018-02-19T00:40:48.878Z,72.72
2018-02-19T00:43:17.985Z,72.82
2018-02-19T00:45:47.090Z,73.07
2018-02-19T00:48:16.984Z,73.00
2018-02-19T00:50:46.087Z,72.79
2018-02-19T00:53:15.190Z,72.97
2018-02-19T00:55:45.059Z,72.98
2018-02-19T00:58:14.277Z,73.02
2018-02-19T01:00:43.386Z,72.95
2018-02-19T01:03:12.487Z,72.77
2018-02-19T01:05:43.989Z,72.33
2018-02-19T01:08:13.092Z,71.83
2018-02-19T01:10:42.198Z,71.98
2018-02-19T01:13:11.292Z,72.34
2018-02-19T01:15:40.402Z,72.20
2018-02-19T01:18:09.519Z,71.93
2018-02-19T01:20:38.602Z,72.20
2018-02-19T01:23:07.709Z,71.54
2018-02-19T01:25:36.800Z,71.31
2018-02-19T01:28:05.944Z,70.26
2018-02-19T01:30:35.028Z,70.10
2018-02-19T01:33:04.205Z,70.00
2018-02-19T01:35:33.300Z,70.44
2018-02-19T01:38:03.165Z,70.52
2018-02-19T01:40:32.270Z,70.74
2018-02-19T01:43:01.587Z,71.05
2018-02-19T01:45:30.680Z,71.30
2018-02-19T01:47:59.770Z,71.49
2018-02-19T01:50:28.858Z,71.17
2018-02-19T01:52:58.758Z,71.19
2018-02-19T01:55:27.831Z,71.46
2018-02-19T01:57:56.948Z,71.02
2018-02-19T02:00:26.052Z,71.33
2018-02-19T02:02:55.158Z,71.39
2018-02-19T02:05:24.240Z,71.49
2018-02-19T02:07:53.373Z,71.59
2018-02-19T02:10:22.457Z,71.42
2018-02-19T02:12:51.565Z,70.74
2018-02-19T02:15:20.665Z,70.41
2018-02-19T02:17:49.798Z,70.59
2018-02-19T02:20:19.638Z,69.97
2018-02-19T02:22:48.734Z,69.52
2018-02-19T02:25:17.828Z,69.11
2018-02-19T02:27:46.925Z,68.72
2018-02-19T02:30:16.031Z,68.43
2018-02-19T02:32:45.114Z,68.00
2018-02-19T02:35:14.240Z,67.52
2018-02-19T02:37:43.333Z,67.39
2018-02-19T02:40:12.454Z,67.66
2018-02-19T02:42:42.303Z,67.99
2018-02-19T02:45:11.475Z,67.60
2018-02-19T02:47:41.339Z,67.58
2018-02-19T02:50:10.432Z,67.64
2018-02-19T02:52:39.538Z,67.44
2018-02-19T02:55:08.662Z,67.39
2018-02-19T02:57:37.747Z,67.76
2018-02-19T03:00:06.857Z,67.71
2018-02-19T03:02:36.740Z,67.33
2018-02-19T03:05:05.845Z,67.07
2018-02-19T03:07:34.920Z,66.79
2018-02-19T03:10:04.029Z,66.74
2018-02-19T03:12:34.321Z,66.45
2018-02-19T03:15:03.437Z,66.24
2018-02-19T03:17:32.523Z,66.14
2018-02-19T03:20:02.346Z,65.96
2018-02-19T03:22:31.450Z,66.02
2018-02-19T03:25:00.550Z,66.00
2018-02-19T03:27:29.658Z,65.92
2018-02-19T03:29:58.752Z,65.69
2018-02-19T03:32:27.861Z,66.38
2018-02-19T03:34:56.947Z,66.73
2018-02-19T03:37:26.093Z,67.19
2018-02-19T03:39:55.940Z,67.16
2018-02-19T03:42:25.029Z,66.82
2018-02-19T03:44:54.144Z,67.10
2018-02-19T03:47:23.231Z,67.43
2018-02-19T03:49:52.338Z,67.97
2018-02-19T03:52:21.418Z,68.26
2018-02-19T03:54:50.556Z,68.65
2018-02-19T03:57:20.914Z,68.03
2018-02-19T03:59:50.028Z,68.78
2018-02-19T04:02:19.110Z,69.00
2018-02-19T04:04:48.214Z,69.32
2018-02-19T04:07:17.308Z,69.65
2018-02-19T04:09:46.407Z,69.65
2018-02-19T04:12:15.497Z,69.67
2018-02-19T04:14:44.623Z,69.49
2018-02-19T04:17:13.722Z,69.88
2018-02-19T04:19:42.842Z,69.87
2018-02-19T04:22:11.934Z,70.25
2018-02-19T04:24:41.801Z,69.97
2018-02-19T04:27:10.911Z,70.31
2018-02-19T04:29:40.018Z,70.50
2018-02-19T04:32:09.145Z,70.69
2018-02-19T04:34:39.014Z,70.42
2018-02-19T04:37:08.130Z,70.80
2018-02-19T04:39:37.236Z,70.27
2018-02-19T04:42:06.338Z,70.66
2018-02-19T04:44:48.030Z,70.99
2018-02-19T04:47:17.902Z,70.88
2018-02-19T04:49:46.985Z,71.22
2018-02-19T04:52:16.107Z,71.10
2018-02-19T04:54:45.197Z,70.71
2018-02-19T04:57:14.312Z,71.01
2018-02-19T04:59:43.435Z,71.30
2018-02-19T05:02:13.305Z,71.13
2018-02-19T05:04:42.417Z,70.98
2018-02-19T05:07:13.040Z,71.18
2018-02-19T05:09:42.145Z,70.72
2018-02-19T05:12:11.229Z,69.83
2018-02-19T05:14:40.348Z,69.37
2018-02-19T05:17:09.439Z,68.95
2018-02-19T05:19:38.547Z,69.18
2018-02-19T05:22:08.403Z,69.08
2018-02-19T05:24:37.536Z,68.95
2018-02-19T05:27:06.624Z,69.09
2018-02-19T05:29:35.732Z,69.00
2018-02-19T05:32:04.824Z,69.06
2018-02-19T05:34:33.948Z,69.19
2018-02-19T05:37:03.802Z,69.16
2018-02-19T05:39:32.920Z,68.92
2018-02-19T05:42:02.018Z,68.97
2018-02-19T05:44:31.118Z,68.79
2018-02-19T05:47:00.243Z,68.70
2018-02-19T05:49:29.334Z,69.16
2018-02-19T05:51:59.218Z,69.70
2018-02-19T05:54:28.326Z,68.88
2018-02-19T05:56:57.436Z,68.64
2018-02-19T05:59:26.550Z,68.28
2018-02-19T06:01:56.450Z,68.60
2018-02-19T06:04:25.877Z,69.21
2018-02-19T06:06:54.987Z,69.37
2018-02-19T06:09:24.071Z,69.36
2018-02-19T06:11:53.189Z,69.75
2018-02-19T06:14:22.276Z,70.24
2018-02-19T06:16:51.393Z,69.72
2018-02-19T06:19:20.483Z,69.23
2018-02-19T06:21:49.594Z,69.08
2018-02-19T06:24:18.716Z,69.15
2018-02-19T06:26:47.826Z,68.91
2018-02-19T06:29:17.701Z,68.72
2018-02-19T06:31:47.139Z,68.58
2018-02-19T06:34:17.015Z,68.98
2018-02-19T06:36:46.132Z,68.92
2018-02-19T06:39:15.241Z,69.07
2018-02-19T06:41:45.102Z,68.87
2018-02-19T06:44:14.214Z,68.48
2018-02-19T06:46:43.360Z,68.49
2018-02-19T06:49:13.250Z,68.33
2018-02-19T06:51:42.355Z,69.19
2018-02-19T06:54:12.060Z,68.85
2018-02-19T06:56:41.158Z,69.36
2018-02-19T06:59:10.257Z,69.40
2018-02-19T07:01:39.358Z,69.13
2018-02-19T07:04:08.468Z,69.30
2018-02-19T07:06:38.338Z,69.95
2018-02-19T07:09:07.447Z,70.10
2018-02-19T07:11:36.576Z,70.17
2018-02-19T07:14:06.430Z,69.59
2018-02-19T07:16:35.532Z,69.26
2018-02-19T07:19:04.642Z,68.77
2018-02-19T07:21:33.752Z,69.55
2018-02-19T07:24:02.874Z,69.60
2018-02-19T07:26:32.743Z,69.59
2018-02-19T07:29:01.849Z,69.36
2018-02-19T07:31:30.954Z,69.39
2018-02-19T07:34:00.095Z,68.84
2018-02-19T07:36:29.198Z,68.30
2018-02-19T07:38:58.320Z,68.12
2018-02-19T07:41:28.211Z,68.25
2018-02-19T07:43:57.306Z,68.30
2018-02-19T07:46:26.397Z,68.09
2018-02-19T07:48:55.560Z,68.30
2018-02-19T07:51:24.668Z,69.31
2018-02-19T07:53:54.533Z,68.54
2018-02-19T07:56:23.657Z,68.16
2018-02-19T07:58:52.736Z,68.24
2018-02-19T08:01:21.867Z,67.97
2018-02-19T08:03:51.713Z,67.49
2018-02-19T08:06:20.846Z,68.06
2018-02-19T08:08:50.791Z,67.98
2018-02-19T08:11:20.674Z,67.04
2018-02-19T08:13:49.757Z,67.23
2018-02-19T08:16:18.906Z,67.46
2018-02-19T08:18:48.762Z,67.53
2018-02-19T08:21:17.858Z,67.14
2018-02-19T08:23:47.005Z,67.05
2018-02-19T08:26:16.090Z,66.03
2018-02-19T08:28:45.973Z,66.23
2018-02-19T08:31:15.073Z,66.77
2018-02-19T08:33:44.209Z,66.89
2018-02-19T08:36:14.078Z,66.58
2018-02-19T08:38:43.173Z,66.41
2018-02-19T08:41:12.289Z,66.05
2018-02-19T08:43:41.428Z,65.37
2018-02-19T08:46:11.328Z,65.35
2018-02-19T08:48:41.183Z,65.40
2018-02-19T08:51:10.298Z,65.54
2018-02-19T08:53:39.635Z,65.37
2018-02-19T08:56:08.750Z,65.21
2018-02-19T08:58:38.564Z,65.25
2018-02-19T09:01:07.668Z,65.31
2018-02-19T09:03:36.782Z,65.10
2018-02-19T09:06:05.889Z,65.16
2018-02-19T09:08:34.970Z,65.00
2018-02-19T09:11:04.070Z,64.93
2018-02-19T09:13:33.185Z,64.92
2018-02-19T09:16:02.308Z,65.06
2018-02-19T09:18:31.406Z,64.81
2018-02-19T09:21:01.294Z,64.47
2018-02-19T09:23:30.385Z,64.60
2018-02-19T09:25:59.799Z,64.49
2018-02-19T09:28:28.894Z,64.50
2018-02-19T09:30:58.837Z,64.95
2018-02-19T09:33:28.710Z,64.91
2018-02-19T09:35:57.890Z,64.93
2018-02-19T09:38:26.990Z,64.59
2018-02-19T09:40:57.157Z,64.45
2018-02-19T09:43:26.245Z,64.13
2018-02-19T09:45:56.298Z,64.45
2018-02-19T09:48:25.443Z,64.37
2018-02-19T09:50:54.769Z,64.24
2018-02-19T09:53:24.663Z,64.31
2018-02-19T09:55:53.756Z,64.01
2018-02-19T09:58:22.907Z,64.27
2018-02-19T10:00:52.009Z,63.30
2018-02-19T10:03:21.114Z,62.32
2018-02-19T10:05:50.246Z,62.47
2018-02-19T10:08:19.352Z,62.33
2018-02-19T10:10:48.467Z,61.83
2018-02-19T10:13:18.330Z,62.18
2018-02-19T10:15:47.462Z,62.20
2018-02-19T10:18:16.559Z,63.17
2018-02-19T10:20:45.670Z,63.15
2018-02-19T10:23:15.546Z,62.82
2018-02-19T10:25:44.647Z,62.75
2018-02-19T10:28:13.741Z,62.07
2018-02-19T10:30:42.878Z,61.88
2018-02-19T10:33:12.770Z,61.40
2018-02-19T10:35:41.866Z,61.44
2018-02-19T10:38:10.966Z,61.32
2018-02-19T10:40:40.095Z,60.83
2018-02-19T10:43:09.191Z,60.71
2018-02-19T10:45:38.319Z,60.09
2018-02-19T10:48:07.433Z,59.07
2018-02-19T10:50:36.553Z,59.54
2018-02-19T10:53:05.645Z,61.02
2018-02-19T10:55:34.744Z,59.44
2018-02-19T10:58:03.856Z,59.73
2018-02-19T11:00:39.215Z,60.16
2018-02-19T11:03:09.083Z,59.23
2018-02-19T11:05:38.215Z,59.69
2018-02-19T11:08:08.060Z,59.02
2018-02-19T11:10:37.175Z,58.52
2018-02-19T11:13:06.286Z,59.52
2018-02-19T11:15:35.388Z,58.88
2018-02-19T11:18:06.021Z,58.26
2018-02-19T11:20:35.113Z,58.33
2018-02-19T11:23:04.241Z,58.97
2018-02-19T11:25:34.101Z,59.49
2018-02-19T11:28:03.244Z,59.11
2018-02-19T11:30:33.115Z,59.23
2018-02-19T11:33:02.216Z,59.77
2018-02-19T11:35:31.314Z,59.35
2018-02-19T11:38:00.437Z,58.87
2018-02-19T11:40:31.127Z,58.38
2018-02-19T11:43:00.202Z,57.81
2018-02-19T11:45:29.298Z,58.08
2018-02-19T11:47:58.437Z,57.84
2018-02-19T11:50:27.554Z,58.01
2018-02-19T11:52:57.432Z,58.11
2018-02-19T11:55:26.550Z,57.93
2018-02-19T11:57:55.681Z,58.41
2018-02-19T12:00:25.550Z,57.98
2018-02-19T12:02:54.652Z,57.85
2018-02-19T12:05:23.743Z,57.50
2018-02-19T12:07:52.973Z,56.98
2018-02-19T12:10:22.067Z,57.15
2018-02-19T12:12:51.195Z,57.15
2018-02-19T12:15:20.279Z,57.35
2018-02-19T12:17:49.406Z,57.49
2018-02-19T12:20:18.479Z,58.43
2018-02-19T12:22:47.593Z,56.71
2018-02-19T12:25:16.705Z,56.63
2018-02-19T12:27:45.829Z,57.59
2018-02-19T12:30:14.935Z,57.28
2018-02-19T12:32:44.061Z,58.23
2018-02-19T12:35:13.906Z,57.42
2018-02-19T12:37:43.029Z,56.88
2018-02-19T12:40:12.124Z,56.83
2018-02-19T12:42:41.260Z,57.13
2018-02-19T12:45:11.176Z,56.96
2018-02-19T12:47:40.254Z,57.49
2018-02-19T12:50:09.358Z,57.25
2018-02-19T12:52:39.226Z,57.52
2018-02-19T12:55:08.359Z,57.54
2018-02-19T12:57:38.235Z,57.16
2018-02-19T13:00:07.368Z,56.88
2018-02-19T13:02:36.479Z,56.51
2018-02-19T13:05:05.617Z,57.34
2018-02-19T13:07:34.703Z,57.44
2018-02-19T13:10:03.825Z,56.74
2018-02-19T13:12:33.698Z,57.63
2018-02-19T13:15:02.850Z,56.96
2018-02-19T13:17:31.911Z,57.29
2018-02-19T13:20:01.038Z,57.06
2018-02-19T13:22:30.135Z,57.74
2018-02-19T13:24:59.259Z,57.71
2018-02-19T13:27:29.113Z,58.05
2018-02-19T13:29:58.245Z,58.20
2018-02-19T13:32:27.340Z,58.79
2018-02-19T13:34:56.453Z,58.79
2018-02-19T13:37:26.328Z,59.30
2018-02-19T13:39:56.188Z,59.10
2018-02-19T13:42:26.695Z,59.19
2018-02-19T13:44:55.794Z,58.86
2018-02-19T13:47:24.942Z,58.46
2018-02-19T13:49:54.790Z,58.23
2018-02-19T13:52:23.940Z,58.00
2018-02-19T13:54:53.021Z,58.01
2018-02-19T13:57:22.909Z,58.18
2018-02-19T13:59:52.001Z,58.19
2018-02-19T14:02:21.152Z,57.80
2018-02-19T14:04:50.243Z,57.90
2018-02-19T14:07:19.358Z,57.58
2018-02-19T14:09:48.509Z,57.42
2018-02-19T14:12:17.609Z,57.45
2018-02-19T14:14:47.476Z,58.70
2018-02-19T14:17:16.595Z,58.39
2018-02-19T14:19:45.674Z,58.73
2018-02-19T14:22:14.793Z,58.05
2018-02-19T14:24:43.919Z,57.98
2018-02-19T14:27:13.768Z,58.27
2018-02-19T14:29:42.901Z,57.89
2018-02-19T14:32:12.010Z,57.99
2018-02-19T14:34:41.878Z,57.90
2018-02-19T14:37:10.995Z,57.79
2018-02-19T14:39:40.121Z,58.02
2018-02-19T14:42:10.003Z,58.37
2018-02-19T14:44:39.892Z,57.96
2018-02-19T14:47:09.006Z,57.84
2018-02-19T14:49:38.118Z,58.61
2018-02-19T14:52:07.255Z,58.92
2018-02-19T14:54:37.120Z,58.28
2018-02-19T14:57:06.254Z,58.69
2018-02-19T14:59:36.142Z,58.69
2018-02-19T15:02:05.252Z,59.56
2018-02-19T15:04:34.364Z,59.36
2018-02-19T15:07:04.229Z,59.14
2018-02-19T15:09:33.361Z,59.12
2018-02-19T15:12:03.248Z,58.76
2018-02-19T15:14:32.383Z,58.53
2018-02-19T15:17:02.234Z,58.60
2018-02-19T15:19:31.346Z,59.21
2018-02-19T15:22:00.470Z,59.27
2018-02-19T15:24:29.638Z,59.15
2018-02-19T15:26:58.686Z,59.54
2018-02-19T15:29:27.804Z,59.37
2018-02-19T15:31:56.916Z,59.54
2018-02-19T15:34:26.049Z,59.70
2018-02-19T15:36:55.153Z,59.23
2018-02-19T15:39:25.063Z,59.21
2018-02-19T15:41:54.973Z,59.12
2018-02-19T15:44:24.087Z,59.13
2018-02-19T15:46:53.974Z,59.33
2018-02-19T15:49:23.120Z,59.85
2018-02-19T15:51:52.291Z,59.78
2018-02-19T15:54:21.403Z,60.31
2018-02-19T15:56:50.592Z,59.91
2018-02-19T15:59:20.485Z,59.54
2018-02-19T16:01:49.628Z,60.25
2018-02-19T16:04:18.734Z,60.24
2018-02-19T16:06:47.888Z,60.11
2018-02-19T16:09:17.008Z,60.13
2018-02-19T16:11:46.903Z,59.91
2018-02-19T16:14:16.837Z,60.00
2018-02-19T16:16:45.934Z,59.91
2018-02-19T16:19:15.030Z,59.60
2018-02-19T16:21:44.163Z,59.82
2018-02-19T16:24:13.283Z,59.83
2018-02-19T16:26:42.433Z,59.74
2018-02-19T16:29:11.527Z,60.14
2018-02-19T16:31:40.615Z,59.82
2018-02-19T16:34:09.744Z,59.85
2018-02-19T16:36:38.833Z,59.93
2018-02-19T16:39:07.959Z,60.87
2018-02-19T16:41:37.069Z,60.91
2018-02-19T16:44:06.190Z,61.14
2018-02-19T16:46:35.287Z,61.73
2018-02-19T16:49:04.482Z,61.88
2018-02-19T16:51:34.325Z,61.79
2018-02-19T16:54:03.462Z,60.91
2018-02-19T16:56:33.374Z,60.83
2018-02-19T16:59:02.486Z,60.57
2018-02-19T17:01:32.369Z,60.07
2018-02-19T17:04:02.400Z,60.03
2018-02-19T17:06:31.561Z,60.35
2018-02-19T17:09:01.397Z,60.58
2018-02-19T17:11:30.514Z,60.99
2018-02-19T17:13:59.631Z,61.62
2018-02-19T17:16:28.794Z,61.79
2018-02-19T17:18:57.891Z,61.86
2018-02-19T17:21:27.030Z,61.64
2018-02-19T17:23:56.907Z,61.12
2018-02-19T17:26:26.161Z,61.57
2018-02-19T17:28:56.081Z,61.79
2018-02-19T17:31:25.947Z,61.92
2018-02-19T17:33:55.088Z,62.19
2018-02-19T17:36:24.961Z,61.99
2018-02-19T17:38:54.054Z,61.84
2018-02-19T17:41:23.178Z,62.03
2018-02-19T17:43:52.943Z,62.51
2018-02-19T17:46:22.091Z,61.70
2018-02-19T17:48:51.996Z,61.65
2018-02-19T17:51:21.124Z,61.76
2018-02-19T17:53:51.077Z,62.00
2018-02-19T17:56:20.171Z,62.04
2018-02-19T17:58:49.360Z,61.57
2018-02-19T18:01:18.540Z,62.54
2018-02-19T18:03:48.412Z,62.69
2018-02-19T18:06:17.517Z,63.62
2018-02-19T18:08:46.701Z,63.61
2018-02-19T18:11:15.814Z,63.36
2018-02-19T18:13:44.953Z,63.75
2018-02-19T18:16:14.791Z,63.36
2018-02-19T18:18:43.909Z,63.45
2018-02-19T18:21:14.541Z,63.56
2018-02-19T18:23:43.668Z,64.02
2018-02-19T18:26:13.592Z,64.10
2018-02-19T18:28:43.491Z,64.87
2018-02-19T18:31:12.634Z,64.98
2018-02-19T18:33:41.771Z,65.39
2018-02-19T18:36:10.892Z,64.98
2018-02-19T18:38:40.018Z,65.22
2018-02-19T18:41:09.129Z,64.99
2018-02-19T18:43:38.263Z,65.00
2018-02-19T18:46:07.389Z,65.24
2018-02-19T18:48:37.438Z,65.65
2018-02-19T18:51:06.554Z,65.07
2018-02-19T18:53:35.675Z,65.43
2018-02-19T18:56:05.532Z,66.20
2018-02-19T18:58:34.656Z,65.61
2018-02-19T19:01:03.805Z,65.30
2018-02-19T19:03:33.700Z,64.69
2018-02-19T19:06:02.802Z,64.92
2018-02-19T19:08:50.416Z,65.02
2018-02-19T19:11:19.544Z,64.39
2018-02-19T19:13:48.713Z,64.08
2018-02-19T19:16:17.829Z,65.05
2018-02-19T19:18:47.716Z,65.04
2018-02-19T19:21:16.848Z,65.07
2018-02-19T19:23:45.957Z,65.53
2018-02-19T19:26:15.116Z,65.76
2018-02-19T19:28:44.230Z,65.04
2018-02-19T19:31:14.118Z,65.06
2018-02-19T19:33:44.045Z,64.42
2018-02-19T19:36:13.166Z,64.71
2018-02-19T19:38:42.295Z,64.86
2018-02-19T19:41:11.435Z,64.79
2018-02-19T19:43:41.667Z,64.71
2018-02-19T19:46:11.579Z,64.05
2018-02-19T19:48:41.472Z,64.39
2018-02-19T19:51:10.616Z,64.01
2018-02-19T19:53:39.735Z,63.55
2018-02-19T19:56:09.815Z,63.75
2018-02-19T19:58:39.909Z,63.59
2018-02-19T20:01:09.026Z,63.26
2018-02-19T20:03:38.935Z,62.93
2018-02-19T20:06:08.805Z,62.89
2018-02-19T20:08:38.002Z,63.29
2018-02-19T20:11:07.139Z,63.79
2018-02-19T20:13:37.036Z,63.86
2018-02-19T20:16:06.167Z,63.74
2018-02-19T20:18:35.339Z,64.42
2018-02-19T20:21:04.401Z,64.73
2018-02-19T20:23:33.533Z,64.60
2018-02-19T20:26:02.671Z,65.20
2018-02-19T20:28:31.822Z,65.86
2018-02-19T20:31:01.716Z,66.17
2018-02-19T20:33:30.839Z,65.67
2018-02-19T20:35:59.972Z,65.42
2018-02-19T20:38:29.095Z,65.50
2018-02-19T20:40:58.245Z,65.47
2018-02-19T20:43:28.139Z,64.72
2018-02-19T20:45:57.251Z,64.71
2018-02-19T20:48:27.139Z,65.08
2018-02-19T20:50:56.281Z,65.55
2018-02-19T20:53:25.366Z,65.90
2018-02-19T20:55:54.513Z,65.62
2018-02-19T20:58:23.651Z,65.73
2018-02-19T21:00:53.542Z,66.29
2018-02-19T21:03:22.694Z,66.56
2018-02-19T21:05:52.574Z,66.96
2018-02-19T21:08:22.483Z,66.83
2018-02-19T21:10:51.641Z,66.35
2018-02-19T21:13:20.728Z,65.95
2018-02-19T21:15:49.885Z,65.59
2018-02-19T21:18:19.772Z,65.26
2018-02-19T21:20:48.902Z,65.75
2018-02-19T21:23:18.771Z,66.21
2018-02-19T21:25:47.899Z,66.42
2018-02-19T21:28:17.774Z,66.69
2018-02-19T21:30:46.931Z,66.65
2018-02-19T21:33:16.785Z,66.36
2018-02-19T21:35:45.990Z,66.81
2018-02-19T21:38:15.102Z,67.22
2018-02-19T21:40:44.228Z,67.39
2018-02-19T21:43:14.126Z,67.35
2018-02-19T21:45:43.249Z,67.87
2018-02-19T21:48:12.365Z,68.06
2018-02-19T21:50:41.530Z,67.95
2018-02-19T21:53:11.405Z,68.66
2018-02-19T21:55:40.535Z,68.57
2018-02-19T21:58:10.394Z,68.00
2018-02-19T22:00:39.487Z,68.40
2018-02-19T22:03:08.646Z,68.80
2018-02-19T22:05:38.521Z,67.50
2018-02-19T22:08:07.652Z,68.19
2018-02-19T22:10:37.696Z,68.36
2018-02-19T22:13:07.588Z,68.52
2018-02-19T22:15:37.509Z,68.40
2018-02-19T22:18:07.395Z,68.31
2018-02-19T22:20:36.494Z,68.79
2018-02-19T22:23:05.631Z,69.07
2018-02-19T22:25:34.761Z,69.18
2018-02-19T22:28:04.110Z,69.25
2018-02-19T22:30:33.668Z,69.22
2018-02-19T22:33:02.835Z,69.01
2018-02-19T22:35:32.062Z,69.10
2018-02-19T22:38:01.162Z,69.69
2018-02-19T22:40:31.019Z,69.82
2018-02-19T22:43:00.871Z,70.70
2018-02-19T22:45:29.990Z,71.46
2018-02-19T22:47:59.831Z,71.63
2018-02-19T22:50:29.745Z,71.68
2018-02-19T22:52:58.843Z,71.82
2018-02-19T22:55:27.962Z,71.69
2018-02-19T22:57:57.841Z,71.25
2018-02-19T23:00:26.955Z,71.18
2018-02-19T23:02:56.808Z,71.15
2018-02-19T23:05:25.928Z,71.44
2018-02-19T23:07:55.075Z,71.58
2018-02-19T23:10:24.164Z,71.50
2018-02-19T23:12:53.280Z,70.51
2018-02-19T23:15:23.246Z,70.18
2018-02-19T23:17:52.368Z,69.63
2018-02-19T23:20:23.357Z,69.62
2018-02-19T23:22:52.480Z,69.96
2018-02-19T23:25:21.569Z,70.26
2018-02-19T23:27:50.673Z,70.55
2018-02-19T23:30:20.282Z,70.94
2018-02-19T23:32:49.422Z,71.01
2018-02-19T23:35:18.509Z,71.17
2018-02-19T23:37:47.642Z,71.47
2018-02-19T23:40:16.762Z,71.85
2018-02-19T23:42:45.855Z,71.84
2018-02-19T23:45:14.965Z,71.80
2018-02-19T23:47:44.055Z,72.02
2018-02-19T23:50:13.171Z,72.14
2018-02-19T23:52:43.027Z,72.55
2018-02-19T23:55:12.172Z,72.43
2018-02-19T23:57:41.258Z,72.64
